Home   Weather   Toledo   Past weeks
Flag for USA

Past Weather in Toledo, USA — Yesterday and Last 2 Weeks

Currently: 63 °F. Clear. (Weather station: Toledo Suburban Airport, USA). See more current weather

Past Weather in Toledo — Graph

°F

Toledo Temperature Yesterday

Maximum temperature yesterday: 83 °F (at 4:35 pm)
Minimum temperature yesterday: 57 °F (at 6:35 am)
Average temperature yesterday: 70 °F

High & Low Weather Summary for the Past Weeks

 TemperatureHumidityPressure
High87 °F (Jul 26, 2:35 pm)96% (Jul 26, 3:35 am)30.25 "Hg (Jul 26, 3:35 am)
Low52 °F (Aug 2, 5:55 am)32% (Jul 25, 3:35 pm)29.78 "Hg (Jul 24, 9:35 pm)
Average72 °F71%30.04 "Hg
* Reported Jul 21 11:15 pm — Aug 5 11:15 pm, Toledo. Weather by CustomWeather, © 2021

Note: Actual official high and low records may vary slightly from our data, if they occured in-between our weather recording intervals... More about our weather records

Toledo Weather History for the Previous 24 Hours

Scroll right to see more
 ConditionsComfort  
Time TempWeatherWind HumidityBarometerVisibility
11:15 pm
Thu, Aug 5
65 °FClear.No wind82%30.09 "Hg10 mi
10:35 pm67 °FClear.No wind75%30.10 "Hg10 mi
9:55 pm67 °FClear.No wind75%30.09 "Hg10 mi
9:15 pm70 °FClear.No wind70%30.08 "Hg10 mi
8:15 pm77 °FSunny.No wind53%30.08 "Hg10 mi
7:55 pm78 °FScattered clouds.No wind48%30.07 "Hg10 mi
7:35 pm80 °FScattered clouds.3 mph43%30.07 "Hg10 mi
7:15 pm80 °FSunny.3 mph43%30.07 "Hg10 mi
6:55 pm81 °FSunny.6 mph41%30.07 "Hg10 mi
6:35 pm81 °FSunny.3 mph40%30.07 "Hg10 mi
6:15 pm82 °FScattered clouds.5 mph40%30.07 "Hg10 mi
5:35 pm82 °FPartly sunny.7 mph42%30.08 "Hg10 mi
5:15 pm83 °FBroken clouds.No wind43%30.08 "Hg10 mi
4:55 pm83 °FScattered clouds.6 mph40%30.08 "Hg10 mi
4:35 pm83 °FScattered clouds.No wind41%30.08 "Hg10 mi
3:55 pm82 °FPartly sunny.3 mph43%30.09 "Hg10 mi
3:35 pm82 °FScattered clouds.3 mph44%30.10 "Hg10 mi
3:15 pm82 °FScattered clouds.3 mph46%30.10 "Hg10 mi
2:55 pm82 °FScattered clouds.5 mph46%30.10 "Hg10 mi
2:15 pm82 °FScattered clouds.7 mph46%30.12 "Hg10 mi
1:55 pm82 °FScattered clouds.No wind48%30.12 "Hg10 mi
1:35 pm82 °FScattered clouds.5 mph47%30.13 "Hg10 mi
1:15 pm81 °FSunny.6 mph48%30.13 "Hg10 mi
12:55 pm80 °FSunny.7 mph46%30.14 "Hg10 mi
12:35 pm80 °FSunny.7 mph47%30.14 "Hg10 mi
12:15 pm80 °FSunny.6 mph48%30.15 "Hg10 mi
11:55 am79 °FSunny.3 mph49%30.15 "Hg10 mi
11:35 am78 °FSunny.No wind48%30.15 "Hg10 mi
11:15 am78 °FSunny.5 mph49%30.15 "Hg10 mi
10:55 am76 °FSunny.3 mph51%30.15 "Hg10 mi
10:35 am76 °FSunny.3 mph50%30.15 "Hg10 mi
9:55 am73 °FSunny.3 mph54%30.15 "Hg10 mi
9:35 am72 °FSunny.3 mph55%30.15 "Hg10 mi
9:15 am71 °FSunny.No wind61%30.15 "Hg10 mi
8:55 am69 °FSunny.No wind66%30.15 "Hg10 mi
8:35 am67 °FSunny.No wind77%30.15 "Hg10 mi
8:15 am64 °FSunny.No wind89%30.15 "Hg10 mi
7:55 am61 °FSunny.No wind93%30.15 "Hg10 mi
7:35 am59 °FScattered clouds.No wind94%30.14 "Hg10 mi
7:15 am58 °FPartly sunny.No wind95%30.15 "Hg10 mi
6:35 am57 °FFog.No wind94%30.14 "Hg2 mi
6:15 am58 °FPassing clouds.No wind94%30.13 "Hg7 mi
5:55 am59 °FPassing clouds.No wind94%30.13 "Hg10 mi
5:35 am59 °FPassing clouds.No wind93%30.13 "Hg10 mi
5:15 am59 °FPassing clouds.No wind93%30.12 "Hg10 mi
4:55 am58 °FPassing clouds.No wind94%30.12 "Hg10 mi
4:35 am58 °FPassing clouds.No wind94%30.11 "Hg10 mi
4:15 am58 °FPassing clouds.No wind93%30.11 "Hg10 mi
3:35 am58 °FClear.No wind92%30.12 "Hg10 mi
3:15 am58 °FClear.No wind92%30.12 "Hg10 mi
2:55 am58 °FClear.No wind92%30.12 "Hg10 mi
2:35 am59 °FClear.No wind92%30.12 "Hg10 mi
2:15 am59 °FClear.No wind92%30.12 "Hg10 mi
1:55 am59 °FClear.No wind91%30.13 "Hg10 mi
1:35 am60 °FClear.No wind90%30.13 "Hg10 mi
1:15 am59 °FClear.No wind90%30.13 "Hg10 mi
12:55 am61 °FClear.No wind86%30.13 "Hg10 mi
12:35 am60 °FClear.No wind88%30.13 "Hg10 mi
12:15 am61 °FClear.No wind88%30.13 "Hg10 mi
Weather by CustomWeather, © 2021

See weather overview